Amarant — CQSF — position and weather

sailwx.info

Track history (hours):
 
Tides and Currents Weather Stations Pressure Air Temp Water Temp Dewpoint Dewpoint Depression Visibility Wind Speed Wind Dir Waves Ship Positions

Amarant

Last reported at 2014-Sep-16 12:33 UTC. Time now 2014-Sep-16 15:31 UTC.
Position N 57°41' E 011°52'.

Length 120 m; draft 7.2 m.

Type: Tanker. MMSI: 255623000.

Date/timePositionNaut miles runAvg speedWind from/ knotsBaromVisibWave heightAir tempDewpointWater temp
2014-Sep-16 12:33N 57°41' E 011°52'3 3.0
2014-Sep-16 11:33N 57°40' E 011°47'0 0.1
2014-Sep-16 10:28N 57°40' E 011°47'0 0.0
2014-Sep-16 09:34N 57°40' E 011°47'0 0.0
2014-Sep-16 08:33N 57°40' E 011°47'0 0.0
2014-Sep-16 07:33N 57°40' E 011°47'0 0.0
2014-Sep-16 06:33N 57°40' E 011°47'0 0.0
2014-Sep-16 05:33N 57°40' E 011°47'0 0.0
2014-Sep-16 04:33N 57°40' E 011°47'0 0.5
2014-Sep-16 03:33N 57°40' E 011°48'3 0.4
2014-Sep-15 20:25N 57°41' E 011°52'1 1.3
2014-Sep-15 19:33N 57°41' E 011°51'1211.6
2014-Sep-15 18:33N 57°37' E 011°30'1312.9
2014-Sep-15 17:33N 57°42' E 011°08'1413.1
2014-Sep-15 16:32N 57°46' E 010°44'28112.2
2014-Sep-14 17:33N 54°14' E 005°15'1212.4
2014-Sep-14 16:33N 54°02' E 005°07'1312.8
2014-Sep-14 15:33N 53°50' E 005°03'1312.6
2014-Sep-14 14:32N 53°39' E 004°53'1212.4
2014-Sep-14 13:33N 53°27' E 004°44'2612.7
2014-Sep-14 11:32N 53°04' E 004°26'1812.9
2014-Sep-14 10:10N 52°48' E 004°13'1013.3
2014-Sep-14 09:23N 52°41' E 004°01'5213.5
2014-Sep-14 05:31N 51°54' E 003°22'1414.1
2014-Sep-14 04:33N 51°41' E 003°17'1010.6
2014-Sep-14 03:34N 51°32' E 003°25'10 9.7
2014-Sep-14 02:34N 51°26' E 003°38'10 9.5
2014-Sep-14 01:33N 51°21' E 003°50'18 4.5
2014-Sep-13 21:33N 51°20' E 004°19'5 4.8
2014-Sep-13 20:33N 51°15' E 004°22'0 0.0
2014-Sep-13 19:31N 51°15' E 004°22'0 0.0
2014-Sep-13 18:31N 51°15' E 004°22'0 0.0
2014-Sep-13 17:31N 51°15' E 004°22'0 0.0
2014-Sep-13 16:31N 51°15' E 004°22'0 0.0
2014-Sep-13 15:31N 51°15' E 004°22'0 0.0
2014-Sep-13 14:33N 51°15' E 004°22'0 0.0
2014-Sep-13 13:34N 51°15' E 004°22'0 0.0
2014-Sep-13 12:33N 51°15' E 004°22'0 0.0
2014-Sep-13 11:34N 51°15' E 004°22'0 0.0
2014-Sep-13 10:34N 51°15' E 004°22'0 0.0
2014-Sep-13 09:34N 51°15' E 004°22'0 0.0
2014-Sep-13 08:34N 51°15' E 004°22'0 0.0
2014-Sep-13 07:34N 51°15' E 004°22'0 0.0
2014-Sep-13 06:34N 51°15' E 004°22'0 0.0
2014-Sep-13 05:34N 51°15' E 004°22'0 0.0
2014-Sep-13 04:34N 51°15' E 004°22'0 0.0
2014-Sep-13 03:34N 51°15' E 004°22'0 0.0
2014-Sep-13 02:33N 51°15' E 004°22'0 0.0
2014-Sep-13 01:34N 51°15' E 004°22'0 0.0
2014-Sep-13 00:34N 51°15' E 004°22'0 0.0
2014-Sep-12 23:34N 51°15' E 004°22'0 0.0
2014-Sep-12 22:34N 51°15' E 004°22'0 0.0
2014-Sep-12 21:33N 51°15' E 004°22'0 0.0
2014-Sep-12 20:34N 51°15' E 004°22'0 0.0
2014-Sep-12 19:34N 51°15' E 004°22'0 0.0
2014-Sep-12 18:33N 51°15' E 004°22'0 0.0
2014-Sep-12 17:34N 51°15' E 004°22'0 0.0
2014-Sep-12 16:34N 51°15' E 004°22'0 0.0
2014-Sep-12 15:34N 51°15' E 004°22'0 0.0
2014-Sep-12 14:34N 51°15' E 004°22'0 0.0
2014-Sep-12 13:34N 51°15' E 004°22'0 0.0
2014-Sep-12 12:33N 51°15' E 004°22'0 0.0
2014-Sep-12 11:34N 51°15' E 004°22'0 0.0
2014-Sep-12 10:34N 51°15' E 004°22'0 0.0
2014-Sep-12 09:34N 51°15' E 004°22'0 0.0
2014-Sep-12 08:34N 51°15' E 004°22'0 0.0
2014-Sep-12 07:34N 51°15' E 004°22'0 0.0
2014-Sep-12 06:34N 51°15' E 004°22'0 0.0
2014-Sep-12 05:33N 51°15' E 004°22'0 0.0
2014-Sep-12 04:34N 51°15' E 004°22'0 0.0
2014-Sep-12 03:34N 51°15' E 004°22'0 0.0
2014-Sep-12 02:34N 51°15' E 004°22'0 0.0
2014-Sep-12 01:34N 51°15' E 004°22'0 0.0
2014-Sep-12 00:34N 51°15' E 004°22'0 0.0
2014-Sep-11 23:34N 51°15' E 004°22'0 0.0
2014-Sep-11 22:34N 51°15' E 004°22'0 0.0
2014-Sep-11 21:34N 51°15' E 004°22'0 0.0
2014-Sep-11 20:33N 51°15' E 004°22'0 0.4
2014-Sep-11 19:32N 51°15' E 004°22'0 0.0
2014-Sep-11 18:32N 51°15' E 004°22'0 0.0
2014-Sep-11 17:32N 51°15' E 004°22'0 0.0
2014-Sep-11 16:32N 51°15' E 004°22'0 0.0
2014-Sep-11 15:32N 51°15' E 004°22'0 0.0
2014-Sep-11 14:32N 51°15' E 004°22'0 0.0
2014-Sep-11 13:32N 51°15' E 004°22'0 0.0
2014-Sep-11 12:29N 51°15' E 004°22'0 0.0
2014-Sep-11 11:32N 51°15' E 004°22'0 0.0
2014-Sep-11 10:32N 51°15' E 004°22'0 0.0
2014-Sep-11 09:32N 51°15' E 004°22'0 0.0
2014-Sep-11 08:32N 51°15' E 004°22'0 0.0
2014-Sep-11 07:32N 51°15' E 004°22'0 0.0
2014-Sep-11 06:32N 51°15' E 004°22'0 0.0
2014-Sep-11 05:32N 51°15' E 004°22'0 0.0
2014-Sep-11 04:32N 51°15' E 004°22'0 0.0
2014-Sep-11 03:32N 51°15' E 004°22'0 0.0
2014-Sep-11 02:32N 51°15' E 004°22'0 0.0
2014-Sep-11 01:32N 51°15' E 004°22'0 0.0
2014-Sep-11 00:32N 51°15' E 004°22'0 0.0
2014-Sep-10 23:32N 51°15' E 004°22'0 0.0
2014-Sep-10 22:32N 51°15' E 004°22'0 0.0
2014-Sep-10 21:32N 51°15' E 004°22'0 0.0
2014-Sep-10 20:32N 51°15' E 004°22'1 0.8
2014-Sep-10 19:33N 51°15' E 004°21'6 5.9
2014-Sep-10 18:33N 51°21' E 004°17'0 0.3
2014-Sep-10 17:33N 51°21' E 004°16'8 8.3
2014-Sep-10 16:33N 51°22' E 004°04'7 7.2
2014-Sep-10 15:33N 51°21' E 003°52'1111.4
2014-Sep-10 14:33N 51°26' E 003°36'1211.7
2014-Sep-10 13:30N 51°36' E 003°23'12 9.4
2014-Sep-10 12:16N 51°47' E 003°18'0 0.0
2014-Sep-10 05:05N 51°47' E 003°18'0 0.0
2014-Sep-10 04:20N 51°47' E 003°18'0 0.0
2014-Sep-10 03:33N 51°47' E 003°18'13 6.6
2014-Sep-10 01:31N 52°00' E 003°21'1312.5
2014-Sep-10 00:28N 52°13' E 003°23'1413.7
2014-Sep-09 23:28N 52°27' E 003°27'6013.9
2014-Sep-09 19:11N 53°14' E 004°26'813.1
2014-Sep-09 18:33N 53°22' E 004°31'32012.6
2014-Sep-08 17:08N 57°42' E 009°60'812.1
2014-Sep-08 16:31N 57°45' E 010°13'1212.8
2014-Sep-08 15:33N 57°49' E 010°35'1212.5
2014-Sep-08 14:33N 57°45' E 010°57'1413.8
2014-Sep-08 13:33N 57°35' E 011°15'1414.1
2014-Sep-08 12:33N 57°23' E 011°29'1514.6
2014-Sep-08 11:33N 57°10' E 011°38'1514.7
2014-Sep-08 10:33N 56°56' E 011°47'1514.4
2014-Sep-08 09:33N 56°42' E 011°55'1413.7
2014-Sep-08 08:33N 56°29' E 012°02'1313.4
2014-Sep-08 07:33N 56°18' E 012°17'1414.1
2014-Sep-08 06:33N 56°07' E 012°32'1413.7
2014-Sep-08 05:33N 55°55' E 012°44'1313.1
2014-Sep-08 04:33N 55°42' E 012°41'1110.7
2014-Sep-08 03:33N 55°32' E 012°43'1312.6
2014-Sep-08 02:33N 55°19' E 012°40'1212.3
2014-Sep-08 01:33N 55°16' E 013°00'1312.9
2014-Sep-08 00:33N 55°15' E 013°23'1313.1
2014-Sep-07 23:33N 55°15' E 013°46'1312.7
2014-Sep-07 22:34N 55°14' E 014°08'1211.9
2014-Sep-07 21:33N 55°21' E 014°26'1312.8
2014-Sep-07 20:34N 55°29' E 014°42'1312.7
2014-Sep-07 19:33N 55°36' E 015°02'1312.7
2014-Sep-07 18:33N 55°42' E 015°21'1312.8
2014-Sep-07 17:33N 55°48' E 015°41'1312.8
2014-Sep-07 16:33N 55°55' E 016°01'1212.1
2014-Sep-07 15:33N 56°05' E 016°11'2712.9
2014-Sep-07 13:29N 56°32' E 016°18'8 0.5
2014-Sep-06 22:33N 56°39' E 016°23'6 6.4
2014-Sep-06 21:33N 56°45' E 016°30'1010.5
2014-Sep-06 20:33N 56°55' E 016°35'9 9.4
2014-Sep-06 19:33N 57°03' E 016°42'9 9.1
2014-Sep-06 18:33N 57°12' E 016°48'10 9.6
2014-Sep-06 17:33N 57°21' E 016°52'1414.3
2014-Sep-06 16:34N 57°34' E 017°04'1414.5
2014-Sep-06 15:33N 57°47' E 017°16'1614.3
2014-Sep-06 14:26N 58°01' E 017°29'1414.2
2014-Sep-06 13:25N 58°14' E 017°41'  
Track history (hours):
 
Tides and Currents Weather Stations Pressure Air Temp Water Temp Dewpoint Dewpoint Depression Visibility Wind Speed Wind Dir Waves Ship Positions

Amarant

Last reported at 2014-Sep-16 12:33 UTC. Time now 2014-Sep-16 15:31 UTC.
Position N 57°41' E 011°52'.

Length 120 m; draft 7.2 m.

Type: Tanker. MMSI: 255623000.

Date/timePositionNaut miles runAvg speedWind from/ knotsBaromVisibWave heightAir tempDewpointWater temp
2014-Sep-16 12:33N 57°41' E 011°52'3 3.0
2014-Sep-16 11:33N 57°40' E 011°47'0 0.1
2014-Sep-16 10:28N 57°40' E 011°47'0 0.0
2014-Sep-16 09:34N 57°40' E 011°47'0 0.0
2014-Sep-16 08:33N 57°40' E 011°47'0 0.0
2014-Sep-16 07:33N 57°40' E 011°47'0 0.0
2014-Sep-16 06:33N 57°40' E 011°47'0 0.0
2014-Sep-16 05:33N 57°40' E 011°47'0 0.0
2014-Sep-16 04:33N 57°40' E 011°47'0 0.5
2014-Sep-16 03:33N 57°40' E 011°48'3 0.4
2014-Sep-15 20:25N 57°41' E 011°52'1 1.3
2014-Sep-15 19:33N 57°41' E 011°51'1211.6
2014-Sep-15 18:33N 57°37' E 011°30'1312.9
2014-Sep-15 17:33N 57°42' E 011°08'1413.1
2014-Sep-15 16:32N 57°46' E 010°44'28112.2
2014-Sep-14 17:33N 54°14' E 005°15'1212.4
2014-Sep-14 16:33N 54°02' E 005°07'1312.8
2014-Sep-14 15:33N 53°50' E 005°03'1312.6
2014-Sep-14 14:32N 53°39' E 004°53'1212.4
2014-Sep-14 13:33N 53°27' E 004°44'2612.7
2014-Sep-14 11:32N 53°04' E 004°26'1812.9
2014-Sep-14 10:10N 52°48' E 004°13'1013.3
2014-Sep-14 09:23N 52°41' E 004°01'5213.5
2014-Sep-14 05:31N 51°54' E 003°22'1414.1
2014-Sep-14 04:33N 51°41' E 003°17'1010.6
2014-Sep-14 03:34N 51°32' E 003°25'10 9.7
2014-Sep-14 02:34N 51°26' E 003°38'10 9.5
2014-Sep-14 01:33N 51°21' E 003°50'18 4.5
2014-Sep-13 21:33N 51°20' E 004°19'5 4.8
2014-Sep-13 20:33N 51°15' E 004°22'0 0.0
2014-Sep-13 19:31N 51°15' E 004°22'0 0.0
2014-Sep-13 18:31N 51°15' E 004°22'0 0.0
2014-Sep-13 17:31N 51°15' E 004°22'0 0.0
2014-Sep-13 16:31N 51°15' E 004°22'0 0.0
2014-Sep-13 15:31N 51°15' E 004°22'0 0.0
2014-Sep-13 14:33N 51°15' E 004°22'0 0.0
2014-Sep-13 13:34N 51°15' E 004°22'0 0.0
2014-Sep-13 12:33N 51°15' E 004°22'0 0.0
2014-Sep-13 11:34N 51°15' E 004°22'0 0.0
2014-Sep-13 10:34N 51°15' E 004°22'0 0.0
2014-Sep-13 09:34N 51°15' E 004°22'0 0.0
2014-Sep-13 08:34N 51°15' E 004°22'0 0.0
2014-Sep-13 07:34N 51°15' E 004°22'0 0.0
2014-Sep-13 06:34N 51°15' E 004°22'0 0.0
2014-Sep-13 05:34N 51°15' E 004°22'0 0.0
2014-Sep-13 04:34N 51°15' E 004°22'0 0.0
2014-Sep-13 03:34N 51°15' E 004°22'0 0.0
2014-Sep-13 02:33N 51°15' E 004°22'0 0.0
2014-Sep-13 01:34N 51°15' E 004°22'0 0.0
2014-Sep-13 00:34N 51°15' E 004°22'0 0.0
2014-Sep-12 23:34N 51°15' E 004°22'0 0.0
2014-Sep-12 22:34N 51°15' E 004°22'0 0.0
2014-Sep-12 21:33N 51°15' E 004°22'0 0.0
2014-Sep-12 20:34N 51°15' E 004°22'0 0.0
2014-Sep-12 19:34N 51°15' E 004°22'0 0.0
2014-Sep-12 18:33N 51°15' E 004°22'0 0.0
2014-Sep-12 17:34N 51°15' E 004°22'0 0.0
2014-Sep-12 16:34N 51°15' E 004°22'0 0.0
2014-Sep-12 15:34N 51°15' E 004°22'0 0.0
2014-Sep-12 14:34N 51°15' E 004°22'0 0.0
2014-Sep-12 13:34N 51°15' E 004°22'0 0.0
2014-Sep-12 12:33N 51°15' E 004°22'0 0.0
2014-Sep-12 11:34N 51°15' E 004°22'0 0.0
2014-Sep-12 10:34N 51°15' E 004°22'0 0.0
2014-Sep-12 09:34N 51°15' E 004°22'0 0.0
2014-Sep-12 08:34N 51°15' E 004°22'0 0.0
2014-Sep-12 07:34N 51°15' E 004°22'0 0.0
2014-Sep-12 06:34N 51°15' E 004°22'0 0.0
2014-Sep-12 05:33N 51°15' E 004°22'0 0.0
2014-Sep-12 04:34N 51°15' E 004°22'0 0.0
2014-Sep-12 03:34N 51°15' E 004°22'0 0.0
2014-Sep-12 02:34N 51°15' E 004°22'0 0.0
2014-Sep-12 01:34N 51°15' E 004°22'0 0.0
2014-Sep-12 00:34N 51°15' E 004°22'0 0.0
2014-Sep-11 23:34N 51°15' E 004°22'0 0.0
2014-Sep-11 22:34N 51°15' E 004°22'0 0.0
2014-Sep-11 21:34N 51°15' E 004°22'0 0.0
2014-Sep-11 20:33N 51°15' E 004°22'0 0.4
2014-Sep-11 19:32N 51°15' E 004°22'0 0.0
2014-Sep-11 18:32N 51°15' E 004°22'0 0.0
2014-Sep-11 17:32N 51°15' E 004°22'0 0.0
2014-Sep-11 16:32N 51°15' E 004°22'0 0.0
2014-Sep-11 15:32N 51°15' E 004°22'0 0.0
2014-Sep-11 14:32N 51°15' E 004°22'0 0.0
2014-Sep-11 13:32N 51°15' E 004°22'0 0.0
2014-Sep-11 12:29N 51°15' E 004°22'0 0.0
2014-Sep-11 11:32N 51°15' E 004°22'0 0.0
2014-Sep-11 10:32N 51°15' E 004°22'0 0.0
2014-Sep-11 09:32N 51°15' E 004°22'0 0.0
2014-Sep-11 08:32N 51°15' E 004°22'0 0.0
2014-Sep-11 07:32N 51°15' E 004°22'0 0.0
2014-Sep-11 06:32N 51°15' E 004°22'0 0.0
2014-Sep-11 05:32N 51°15' E 004°22'0 0.0
2014-Sep-11 04:32N 51°15' E 004°22'0 0.0
2014-Sep-11 03:32N 51°15' E 004°22'0 0.0
2014-Sep-11 02:32N 51°15' E 004°22'0 0.0
2014-Sep-11 01:32N 51°15' E 004°22'0 0.0
2014-Sep-11 00:32N 51°15' E 004°22'0 0.0
2014-Sep-10 23:32N 51°15' E 004°22'0 0.0
2014-Sep-10 22:32N 51°15' E 004°22'0 0.0
2014-Sep-10 21:32N 51°15' E 004°22'0 0.0
2014-Sep-10 20:32N 51°15' E 004°22'1 0.8
2014-Sep-10 19:33N 51°15' E 004°21'6 5.9
2014-Sep-10 18:33N 51°21' E 004°17'0 0.3
2014-Sep-10 17:33N 51°21' E 004°16'8 8.3
2014-Sep-10 16:33N 51°22' E 004°04'7 7.2
2014-Sep-10 15:33N 51°21' E 003°52'1111.4
2014-Sep-10 14:33N 51°26' E 003°36'1211.7
2014-Sep-10 13:30N 51°36' E 003°23'12 9.4
2014-Sep-10 12:16N 51°47' E 003°18'0 0.0
2014-Sep-10 05:05N 51°47' E 003°18'0 0.0
2014-Sep-10 04:20N 51°47' E 003°18'0 0.0
2014-Sep-10 03:33N 51°47' E 003°18'13 6.6
2014-Sep-10 01:31N 52°00' E 003°21'1312.5
2014-Sep-10 00:28N 52°13' E 003°23'1413.7
2014-Sep-09 23:28N 52°27' E 003°27'6013.9
2014-Sep-09 19:11N 53°14' E 004°26'813.1
2014-Sep-09 18:33N 53°22' E 004°31'32012.6
2014-Sep-08 17:08N 57°42' E 009°60'812.1
2014-Sep-08 16:31N 57°45' E 010°13'1212.8
2014-Sep-08 15:33N 57°49' E 010°35'1212.5
2014-Sep-08 14:33N 57°45' E 010°57'1413.8
2014-Sep-08 13:33N 57°35' E 011°15'1414.1
2014-Sep-08 12:33N 57°23' E 011°29'1514.6
2014-Sep-08 11:33N 57°10' E 011°38'1514.7
2014-Sep-08 10:33N 56°56' E 011°47'1514.4
2014-Sep-08 09:33N 56°42' E 011°55'1413.7
2014-Sep-08 08:33N 56°29' E 012°02'1313.4
2014-Sep-08 07:33N 56°18' E 012°17'1414.1
2014-Sep-08 06:33N 56°07' E 012°32'1413.7
2014-Sep-08 05:33N 55°55' E 012°44'1313.1
2014-Sep-08 04:33N 55°42' E 012°41'1110.7
2014-Sep-08 03:33N 55°32' E 012°43'1312.6
2014-Sep-08 02:33N 55°19' E 012°40'1212.3
2014-Sep-08 01:33N 55°16' E 013°00'1312.9
2014-Sep-08 00:33N 55°15' E 013°23'1313.1
2014-Sep-07 23:33N 55°15' E 013°46'1312.7
2014-Sep-07 22:34N 55°14' E 014°08'1211.9
2014-Sep-07 21:33N 55°21' E 014°26'1312.8
2014-Sep-07 20:34N 55°29' E 014°42'1312.7
2014-Sep-07 19:33N 55°36' E 015°02'1312.7
2014-Sep-07 18:33N 55°42' E 015°21'1312.8
2014-Sep-07 17:33N 55°48' E 015°41'1312.8
2014-Sep-07 16:33N 55°55' E 016°01'1212.1
2014-Sep-07 15:33N 56°05' E 016°11'2712.9
2014-Sep-07 13:29N 56°32' E 016°18'8 0.5
2014-Sep-06 22:33N 56°39' E 016°23'6 6.4
2014-Sep-06 21:33N 56°45' E 016°30'1010.5
2014-Sep-06 20:33N 56°55' E 016°35'9 9.4
2014-Sep-06 19:33N 57°03' E 016°42'9 9.1
2014-Sep-06 18:33N 57°12' E 016°48'10 9.6
2014-Sep-06 17:33N 57°21' E 016°52'1414.3
2014-Sep-06 16:34N 57°34' E 017°04'1414.5
2014-Sep-06 15:33N 57°47' E 017°16'1614.3
2014-Sep-06 14:26N 58°01' E 017°29'1414.2
2014-Sep-06 13:25N 58°14' E 017°41'  

Dump ship's entire track history